createdAt,value
2023-04-25T00:00:39.222Z,13.15
2023-04-25T00:03:07.206Z,11.90
2023-04-25T00:05:35.854Z,11.73
2023-04-25T00:08:05.126Z,12.57
2023-04-25T00:10:33.176Z,10.80
2023-04-25T00:13:03.265Z,12.55
2023-04-25T00:15:32.101Z,11.07
2023-04-25T00:18:00.032Z,13.50
2023-04-25T00:20:28.400Z,10.48
2023-04-25T00:22:57.518Z,14.45
2023-04-25T00:25:26.063Z,11.93
2023-04-25T00:27:54.064Z,19.08
2023-04-25T00:30:22.094Z,14.90
2023-04-25T00:32:51.050Z,10.25
2023-04-25T00:35:19.206Z,13.57
2023-04-25T00:37:47.339Z,20.75
2023-04-25T00:40:15.410Z,11.82
2023-04-25T00:42:43.460Z,15.57
2023-04-25T00:45:16.282Z,12.48
2023-04-25T00:47:47.487Z,11.00
2023-04-25T00:50:15.597Z,10.45
2023-04-25T00:52:46.558Z,10.98
2023-04-25T00:55:16.910Z,14.50
2023-04-25T00:57:45.097Z,10.98
2023-04-25T01:00:15.863Z,11.80
2023-04-25T01:02:46.742Z,12.95
2023-04-25T01:05:15.195Z,13.40
2023-04-25T01:07:43.511Z,9.70
2023-04-25T01:10:11.892Z,10.70
2023-04-25T01:12:40.083Z,12.73
2023-04-25T01:15:08.828Z,17.48
2023-04-25T01:17:36.995Z,8.75
2023-04-25T01:20:10.963Z,9.63
2023-04-25T01:22:39.271Z,11.30
2023-04-25T01:25:08.965Z,11.35
2023-04-25T01:27:38.482Z,10.55
2023-04-25T01:30:07.929Z,10.65
2023-04-25T01:32:40.704Z,11.77
2023-04-25T01:37:43.354Z,11.68
2023-04-25T01:40:14.627Z,11.38
2023-04-25T01:42:45.055Z,13.05
2023-04-25T01:45:14.350Z,16.10
2023-04-25T01:47:44.012Z,14.55
2023-04-25T01:50:12.699Z,11.77
2023-04-25T01:52:40.910Z,15.38
2023-04-25T01:55:10.450Z,14.25
2023-04-25T01:57:44.857Z,10.65
2023-04-25T02:00:14.104Z,12.07
2023-04-25T02:02:42.189Z,14.95
2023-04-25T02:05:34.958Z,13.13
2023-04-25T02:08:03.316Z,11.48
2023-04-25T02:10:31.792Z,14.50
2023-04-25T02:13:14.783Z,14.32
2023-04-25T02:15:50.727Z,13.43
2023-04-25T02:18:22.472Z,11.50
2023-04-25T02:20:50.771Z,16.02
2023-04-25T02:23:20.250Z,12.55
2023-04-25T02:25:48.641Z,10.50
2023-04-25T02:28:16.727Z,15.13
2023-04-25T02:30:44.792Z,10.15
2023-04-25T02:33:13.245Z,11.73
2023-04-25T02:35:41.322Z,12.82
2023-04-25T02:38:09.408Z,12.10
2023-04-25T02:40:37.488Z,12.38
2023-04-25T02:43:05.567Z,14.63
2023-04-25T02:45:33.746Z,11.55
2023-04-25T02:48:01.867Z,17.25
2023-04-25T02:50:32.969Z,19.25
2023-04-25T02:53:01.530Z,18.42
2023-04-25T02:55:36.245Z,17.83
2023-04-25T02:58:06.494Z,17.73
2023-04-25T03:00:46.805Z,30.67
2023-04-25T03:03:18.784Z,17.08
2023-04-25T03:05:48.078Z,19.20
2023-04-25T03:08:20.015Z,14.02
2023-04-25T03:10:48.971Z,16.38
2023-04-25T03:13:17.817Z,14.13
2023-04-25T03:15:45.909Z,18.92
2023-04-25T03:18:14.110Z,18.13
2023-04-25T03:20:42.954Z,18.35
2023-04-25T03:23:11.016Z,18.42
2023-04-25T03:25:41.853Z,17.87
2023-04-25T03:28:10.070Z,18.95
2023-04-25T03:30:38.541Z,20.70
2023-04-25T03:33:06.755Z,20.40
2023-04-25T03:35:34.651Z,17.92
2023-04-25T03:38:02.753Z,19.02
2023-04-25T03:40:35.728Z,14.70
2023-04-25T03:43:16.695Z,13.83
2023-04-25T03:45:52.149Z,16.77
2023-04-25T03:48:23.541Z,17.33
2023-04-25T03:50:51.778Z,19.70
2023-04-25T03:53:20.177Z,15.10
2023-04-25T03:56:07.674Z,14.93
2023-04-25T03:58:39.647Z,19.52
2023-04-25T04:01:10.269Z,15.00
2023-04-25T04:03:41.309Z,14.55
2023-04-25T04:06:10.613Z,12.73
2023-04-25T04:08:42.185Z,12.55
2023-04-25T04:11:11.843Z,12.63
2023-04-25T04:13:40.111Z,16.88
2023-04-25T04:16:09.224Z,17.95
2023-04-25T04:18:37.303Z,16.13
2023-04-25T04:21:05.557Z,11.98
2023-04-25T04:23:39.520Z,11.35
2023-04-25T04:26:09.712Z,12.73
2023-04-25T04:28:41.035Z,21.05
2023-04-25T04:31:25.734Z,11.13
2023-04-25T04:33:54.962Z,13.75
2023-04-25T04:36:24.171Z,12.35
2023-04-25T04:38:53.770Z,13.50
2023-04-25T04:41:33.586Z,15.55
2023-04-25T04:44:37.843Z,13.18
2023-04-25T04:47:27.135Z,11.00
2023-04-25T04:50:19.352Z,13.27
2023-04-25T04:53:08.620Z,13.60
2023-04-25T04:55:52.284Z,11.75
2023-04-25T04:58:38.789Z,10.85
2023-04-25T05:01:21.042Z,13.82
2023-04-25T05:04:02.337Z,13.13
2023-04-25T05:06:49.788Z,13.77
2023-04-25T05:09:33.432Z,10.23
2023-04-25T05:12:24.633Z,9.40
2023-04-25T05:15:03.203Z,9.43
2023-04-25T05:17:51.793Z,7.47
2023-04-25T05:20:33.546Z,11.68
2023-04-25T05:23:20.531Z,9.45
2023-04-25T05:26:15.574Z,11.20
2023-04-25T05:29:02.880Z,10.65
2023-04-25T05:32:00.005Z,15.90
2023-04-25T05:34:28.152Z,11.00
2023-04-25T05:37:03.053Z,10.55
2023-04-25T05:39:32.328Z,9.50
2023-04-25T05:42:15.890Z,10.98
2023-04-25T05:45:09.395Z,12.52
2023-04-25T05:47:47.494Z,10.30
2023-04-25T05:50:47.965Z,9.18
2023-04-25T05:53:36.971Z,12.93
2023-04-25T05:56:05.821Z,8.77
2023-04-25T05:58:33.797Z,11.00
2023-04-25T06:01:04.136Z,11.50
2023-04-25T06:03:32.512Z,11.48
2023-04-25T06:06:00.649Z,11.35
2023-04-25T06:08:28.851Z,11.13
2023-04-25T06:10:56.858Z,12.10
2023-04-25T06:13:26.057Z,10.93
2023-04-25T06:15:54.846Z,9.00
2023-04-25T06:18:22.845Z,11.38
2023-04-25T06:20:51.291Z,16.88
2023-04-25T06:23:20.769Z,12.60
2023-04-25T06:26:00.923Z,12.60
2023-04-25T06:28:30.065Z,14.93
2023-04-25T06:30:58.032Z,9.75
2023-04-25T06:33:26.148Z,10.63
2023-04-25T06:35:56.222Z,10.35
2023-04-25T06:40:58.399Z,9.73
2023-04-25T06:43:29.112Z,10.60
2023-04-25T06:46:28.317Z,11.77
2023-04-25T06:48:59.296Z,11.38
2023-04-25T06:51:30.617Z,10.10
2023-04-25T06:56:36.866Z,9.32
2023-04-25T06:59:13.287Z,11.35
2023-04-25T07:01:42.736Z,9.00
2023-04-25T07:04:17.183Z,10.98
2023-04-25T07:06:52.894Z,8.93
2023-04-25T07:09:26.565Z,11.93
2023-04-25T07:11:54.859Z,12.68
2023-04-25T07:14:23.018Z,12.05
2023-04-25T07:16:51.451Z,14.20
2023-04-25T07:19:20.916Z,11.55
2023-04-25T07:21:49.265Z,11.02
2023-04-25T07:24:17.734Z,11.38
2023-04-25T07:26:49.474Z,12.10
2023-04-25T07:29:24.939Z,13.73
2023-04-25T07:31:54.875Z,10.05
2023-04-25T07:34:24.069Z,12.80
2023-04-25T07:36:53.864Z,11.98
2023-04-25T07:39:24.603Z,14.63
2023-04-25T07:41:55.714Z,11.02
2023-04-25T07:44:28.455Z,11.60
2023-04-25T07:46:56.680Z,12.20
2023-04-25T07:49:25.467Z,13.15
2023-04-25T07:51:54.028Z,11.40
2023-04-25T07:54:22.959Z,10.63
2023-04-25T07:56:59.378Z,9.20
2023-04-25T07:59:31.300Z,10.68
2023-04-25T08:02:03.675Z,8.75
2023-04-25T08:04:33.057Z,7.25
2023-04-25T08:07:07.022Z,8.15
2023-04-25T08:09:50.139Z,5.25
2023-04-25T08:12:26.220Z,5.40
2023-04-25T08:14:54.713Z,4.90
2023-04-25T08:17:25.213Z,4.15
2023-04-25T08:19:53.786Z,6.55
2023-04-25T08:22:30.136Z,4.47
2023-04-25T08:25:15.564Z,3.95
2023-04-25T08:27:45.710Z,4.90
2023-04-25T08:30:14.372Z,4.80
2023-04-25T08:32:43.921Z,3.25
2023-04-25T08:35:23.024Z,4.63
2023-04-25T08:37:52.649Z,5.75
2023-04-25T08:40:30.019Z,6.45
2023-04-25T08:43:12.891Z,7.65
2023-04-25T08:45:43.677Z,3.67
2023-04-25T08:48:19.112Z,4.70
2023-04-25T08:50:52.191Z,7.18
2023-04-25T08:53:31.111Z,3.40
2023-04-25T08:56:07.002Z,4.40
2023-04-25T08:58:38.428Z,6.68
2023-04-25T09:01:09.172Z,5.72
2023-04-25T09:03:46.376Z,5.40
2023-04-25T09:06:15.263Z,7.45
2023-04-25T09:08:43.929Z,4.93
2023-04-25T09:11:14.203Z,9.65
2023-04-25T09:13:42.556Z,4.43
2023-04-25T09:16:29.733Z,10.20
2023-04-25T09:22:04.943Z,7.10
2023-04-25T09:24:38.858Z,4.95
2023-04-25T09:27:20.432Z,5.20
2023-04-25T09:30:05.118Z,3.80
2023-04-25T09:32:50.779Z,4.53
2023-04-25T09:35:28.930Z,7.00
2023-04-25T09:38:00.328Z,5.00
2023-04-25T09:40:50.802Z,5.43
2023-04-25T09:43:27.754Z,5.35
2023-04-25T09:46:00.372Z,6.47
2023-04-25T09:48:30.728Z,5.82
2023-04-25T09:51:07.110Z,5.28
2023-04-25T09:56:17.835Z,6.95
2023-04-25T09:58:48.556Z,20.95
2023-04-25T10:01:18.572Z,5.80
2023-04-25T10:04:03.066Z,5.78
2023-04-25T10:06:45.317Z,6.55
2023-04-25T10:09:15.628Z,7.15
2023-04-25T10:11:45.389Z,5.75
2023-04-25T10:14:14.902Z,5.90
2023-04-25T10:16:44.204Z,6.65
2023-04-25T10:19:12.550Z,6.85
2023-04-25T10:21:58.089Z,5.75
2023-04-25T10:24:26.998Z,6.50
2023-04-25T10:26:55.683Z,5.72
2023-04-25T10:29:27.583Z,5.63
2023-04-25T10:31:56.470Z,7.45
2023-04-25T10:34:44.905Z,6.57
2023-04-25T10:37:14.073Z,6.72
2023-04-25T10:39:43.515Z,9.27
2023-04-25T10:42:13.053Z,9.93
2023-04-25T10:44:41.642Z,7.82
2023-04-25T10:47:10.975Z,6.65
2023-04-25T10:49:44.738Z,6.10
2023-04-25T10:52:26.546Z,7.00
2023-04-25T10:54:57.818Z,7.80
2023-04-25T10:57:51.054Z,7.13
2023-04-25T11:00:25.891Z,6.95
2023-04-25T11:03:03.382Z,7.85
2023-04-25T11:05:43.833Z,7.68
2023-04-25T11:08:25.857Z,8.38
2023-04-25T11:10:54.442Z,5.43
2023-04-25T11:13:22.472Z,5.57
2023-04-25T11:16:03.193Z,7.35
2023-04-25T11:18:43.999Z,8.48
2023-04-25T11:21:13.181Z,8.25
2023-04-25T11:23:41.463Z,9.38
2023-04-25T11:26:09.640Z,7.63
2023-04-25T11:28:37.998Z,6.30
2023-04-25T11:31:06.462Z,6.32
2023-04-25T11:33:34.720Z,4.35
2023-04-25T11:36:03.062Z,6.13
2023-04-25T11:38:31.290Z,6.65
2023-04-25T11:41:00.190Z,8.50
2023-04-25T11:43:28.930Z,11.88
2023-04-25T11:45:57.627Z,8.20
2023-04-25T11:48:26.644Z,7.85
2023-04-25T11:50:56.811Z,7.63
2023-04-25T11:53:26.646Z,7.53
2023-04-25T11:55:55.087Z,7.80
2023-04-25T11:58:23.921Z,6.03
2023-04-25T12:00:52.580Z,8.98
2023-04-25T12:03:21.604Z,8.10
2023-04-25T12:05:51.341Z,10.73
2023-04-25T12:08:23.426Z,8.88
2023-04-25T12:10:52.330Z,6.57
2023-04-25T12:13:26.536Z,5.57
2023-04-25T12:15:58.317Z,7.93
2023-04-25T12:18:29.552Z,5.93
2023-04-25T12:23:32.144Z,6.90
2023-04-25T12:26:00.766Z,5.72
2023-04-25T12:28:29.472Z,6.75
2023-04-25T12:31:10.694Z,7.70
2023-04-25T12:33:41.098Z,7.38
2023-04-25T12:36:14.244Z,7.00
2023-04-25T12:38:43.954Z,7.68
2023-04-25T12:41:12.811Z,5.43
2023-04-25T12:43:41.288Z,7.93
2023-04-25T12:46:09.606Z,9.85
2023-04-25T12:48:39.653Z,7.95
2023-04-25T12:51:08.394Z,9.63
2023-04-25T12:53:38.705Z,8.52
2023-04-25T12:56:08.342Z,14.18
2023-04-25T12:58:37.452Z,8.25
2023-04-25T13:01:06.379Z,7.95
2023-04-25T13:03:35.628Z,10.02
2023-04-25T13:06:04.108Z,9.13
2023-04-25T13:08:32.557Z,6.03
2023-04-25T13:11:01.618Z,8.60
2023-04-25T13:13:30.907Z,9.27
2023-04-25T13:15:59.869Z,7.05
2023-04-25T13:18:28.058Z,8.85
2023-04-25T13:20:57.325Z,9.50
2023-04-25T13:23:27.730Z,9.70
2023-04-25T13:25:58.869Z,10.18
2023-04-25T13:28:26.799Z,8.20
2023-04-25T13:30:55.311Z,12.32
2023-04-25T13:33:23.737Z,5.88
2023-04-25T13:35:55.040Z,8.60
2023-04-25T13:38:25.156Z,8.45
2023-04-25T13:40:54.078Z,11.90
2023-04-25T13:43:23.286Z,9.15
2023-04-25T13:45:51.837Z,10.93
2023-04-25T13:48:21.302Z,9.50
2023-04-25T13:50:49.531Z,9.63
2023-04-25T13:53:17.832Z,11.40
2023-04-25T13:55:46.091Z,10.25
2023-04-25T13:58:14.312Z,11.93
2023-04-25T14:00:44.590Z,9.20
2023-04-25T14:03:12.834Z,9.50
2023-04-25T14:05:41.324Z,9.57
2023-04-25T14:08:11.049Z,11.35
2023-04-25T14:10:39.220Z,11.80
2023-04-25T14:13:09.551Z,10.05
2023-04-25T14:15:39.106Z,9.57
2023-04-25T14:18:07.170Z,7.45
2023-04-25T14:20:36.018Z,11.65
2023-04-25T14:23:04.435Z,9.05
2023-04-25T14:25:32.502Z,8.38
2023-04-25T14:28:00.615Z,11.85
2023-04-25T14:30:30.422Z,9.95
2023-04-25T14:33:00.183Z,9.63
2023-04-25T14:35:28.262Z,9.48
2023-04-25T14:37:56.507Z,9.00
2023-04-25T14:40:27.101Z,9.63
2023-04-25T14:42:57.015Z,10.80
2023-04-25T14:45:25.976Z,8.45
2023-04-25T14:47:54.112Z,12.90
2023-04-25T14:50:22.430Z,11.75
2023-04-25T14:52:51.098Z,11.98
2023-04-25T14:55:19.252Z,11.75
2023-04-25T14:57:47.415Z,9.82
2023-04-25T15:00:17.438Z,14.55
2023-04-25T15:02:45.697Z,13.32
2023-04-25T15:05:14.963Z,12.27
2023-04-25T15:07:43.220Z,14.45
2023-04-25T15:10:17.060Z,15.07
2023-04-25T15:12:47.726Z,12.88
2023-04-25T15:15:25.440Z,12.20
2023-04-25T15:17:58.956Z,12.77
2023-04-25T15:20:28.678Z,12.43
2023-04-25T15:22:56.906Z,12.10
2023-04-25T15:25:25.157Z,11.50
2023-04-25T15:27:54.659Z,12.75
2023-04-25T15:30:22.885Z,14.25
2023-04-25T15:32:51.070Z,15.27
2023-04-25T15:35:20.048Z,11.15
2023-04-25T15:37:48.120Z,24.90
2023-04-25T15:40:17.915Z,12.48
2023-04-25T15:42:48.752Z,15.23
2023-04-25T15:45:18.097Z,9.20
2023-04-25T15:47:47.023Z,35.45
2023-04-25T15:50:16.341Z,13.38
2023-04-25T15:52:44.433Z,31.42
2023-04-25T15:55:13.976Z,16.05
2023-04-25T15:57:42.469Z,21.45
2023-04-25T16:00:15.357Z,52.20
2023-04-25T16:02:46.025Z,27.90
2023-04-25T16:05:15.538Z,20.63
2023-04-25T16:07:50.953Z,28.73
2023-04-25T16:10:21.747Z,23.55
2023-04-25T16:12:50.636Z,25.80
2023-04-25T16:15:19.425Z,25.50
2023-04-25T16:17:47.705Z,31.55
2023-04-25T16:20:16.484Z,26.40
2023-04-25T16:22:45.153Z,17.10
2023-04-25T16:25:13.879Z,17.48
2023-04-25T16:27:42.114Z,25.20
2023-04-25T16:30:11.902Z,17.60
2023-04-25T16:32:42.676Z,19.52
2023-04-25T16:35:13.240Z,20.38
2023-04-25T16:37:41.908Z,25.27
2023-04-25T16:40:10.622Z,22.23
2023-04-25T16:42:39.335Z,23.00
2023-04-25T16:45:08.890Z,16.98
2023-04-25T16:47:37.596Z,21.98
2023-04-25T16:50:07.322Z,17.50
2023-04-25T16:52:35.796Z,15.95
2023-04-25T16:55:04.465Z,16.98
2023-04-25T16:57:32.864Z,9.00
2023-04-25T17:00:01.862Z,11.30
2023-04-25T17:02:30.254Z,13.52
2023-04-25T17:04:59.493Z,14.65
2023-04-25T17:07:29.045Z,10.52
2023-04-25T17:09:57.344Z,12.60
2023-04-25T17:12:25.663Z,16.25
2023-04-25T17:14:54.345Z,12.82
2023-04-25T17:17:22.558Z,15.50
2023-04-25T17:19:52.411Z,14.55
2023-04-25T17:22:21.784Z,13.57
2023-04-25T17:24:50.844Z,16.42
2023-04-25T17:27:19.581Z,12.10
2023-04-25T17:29:47.919Z,11.18
2023-04-25T17:32:17.361Z,15.18
2023-04-25T17:34:46.854Z,17.08
2023-04-25T17:37:16.999Z,10.18
2023-04-25T17:39:45.756Z,17.58
2023-04-25T17:42:15.673Z,12.82
2023-04-25T17:44:44.198Z,10.43
2023-04-25T17:47:12.353Z,9.35
2023-04-25T17:49:41.477Z,10.77
2023-04-25T17:52:09.566Z,11.18
2023-04-25T17:54:37.830Z,13.27
2023-04-25T17:57:06.135Z,8.95
2023-04-25T17:59:35.975Z,9.45
2023-04-25T18:02:04.535Z,13.27
2023-04-25T18:04:33.077Z,9.30
2023-04-25T18:07:01.864Z,12.55
2023-04-25T18:09:32.486Z,11.88
2023-04-25T18:12:02.357Z,13.85
2023-04-25T18:14:30.999Z,12.20
2023-04-25T18:17:00.393Z,11.38
2023-04-25T18:19:28.798Z,14.40
2023-04-25T18:21:58.780Z,14.45
2023-04-25T18:24:29.134Z,13.93
2023-04-25T18:27:01.595Z,13.77
2023-04-25T18:29:33.647Z,15.60
2023-04-25T18:32:05.074Z,10.18
2023-04-25T18:34:34.424Z,12.43
2023-04-25T18:37:02.754Z,14.10
2023-04-25T18:39:31.179Z,11.90
2023-04-25T18:42:05.649Z,16.58
2023-04-25T18:44:42.376Z,15.80
2023-04-25T18:47:11.463Z,17.05
2023-04-25T18:49:40.874Z,12.70
2023-04-25T18:52:11.258Z,19.50
2023-04-25T18:54:39.836Z,16.15
2023-04-25T18:57:09.765Z,17.58
2023-04-25T18:59:38.528Z,17.25
2023-04-25T19:02:07.113Z,15.50
2023-04-25T19:04:35.800Z,21.30
2023-04-25T19:07:05.853Z,14.10
2023-04-25T19:09:34.235Z,20.67
2023-04-25T19:12:03.972Z,14.88
2023-04-25T19:14:34.136Z,14.73
2023-04-25T19:17:02.734Z,16.33
2023-04-25T19:19:31.675Z,15.68
2023-04-25T19:22:01.045Z,12.85
2023-04-25T19:24:29.422Z,12.95
2023-04-25T19:26:57.537Z,14.45
2023-04-25T19:29:26.342Z,14.35
2023-04-25T19:31:54.636Z,17.33
2023-04-25T19:34:24.918Z,14.13
2023-04-25T19:36:54.514Z,14.32
2023-04-25T19:39:23.307Z,16.17
2023-04-25T19:41:51.754Z,12.90
2023-04-25T19:44:20.310Z,13.77
2023-04-25T19:46:49.655Z,14.63
2023-04-25T19:49:18.241Z,13.50
2023-04-25T19:51:48.840Z,11.77
2023-04-25T19:54:17.422Z,9.05
2023-04-25T19:56:46.223Z,10.27
2023-04-25T19:59:15.116Z,12.20
2023-04-25T20:01:44.910Z,11.13
2023-04-25T20:04:13.743Z,13.18
2023-04-25T20:06:42.407Z,10.93
2023-04-25T20:09:12.291Z,15.63
2023-04-25T20:11:40.567Z,13.02
2023-04-25T20:14:08.770Z,12.60
2023-04-25T20:16:37.910Z,12.40
2023-04-25T20:19:06.518Z,9.48
2023-04-25T20:21:35.294Z,8.90
2023-04-25T20:24:04.631Z,15.05
2023-04-25T20:26:34.418Z,14.73
2023-04-25T20:29:02.519Z,12.57
2023-04-25T20:31:32.181Z,14.27
2023-04-25T20:34:01.214Z,12.73
2023-04-25T20:36:30.275Z,13.35
2023-04-25T20:38:58.793Z,11.18
2023-04-25T20:41:27.981Z,13.00
2023-04-25T20:43:57.222Z,12.60
2023-04-25T20:46:26.532Z,10.68
2023-04-25T20:48:55.115Z,14.20
2023-04-25T20:51:24.436Z,15.13
2023-04-25T20:53:53.095Z,10.45
2023-04-25T20:56:21.164Z,13.20
2023-04-25T20:58:49.589Z,12.20
2023-04-25T21:01:18.738Z,13.82
2023-04-25T21:03:50.885Z,16.77
2023-04-25T21:06:19.742Z,15.68
2023-04-25T21:08:48.176Z,15.00
2023-04-25T21:11:16.386Z,13.93
2023-04-25T21:13:45.266Z,16.60
2023-04-25T21:16:13.307Z,13.50
2023-04-25T21:18:41.540Z,12.00
2023-04-25T21:21:11.275Z,11.70
2023-04-25T21:23:40.164Z,13.52
2023-04-25T21:26:09.390Z,17.00
2023-04-25T21:28:38.255Z,22.33
2023-04-25T21:31:06.637Z,13.75
2023-04-25T21:33:34.863Z,16.02
2023-04-25T21:36:03.093Z,9.30
2023-04-25T21:38:31.134Z,7.78
2023-04-25T21:40:59.322Z,10.10
2023-04-25T21:43:27.425Z,11.07
2023-04-25T21:46:20.787Z,13.00
2023-04-25T21:48:43.781Z,12.95
2023-04-25T21:51:12.240Z,8.75
2023-04-25T21:53:40.707Z,11.57
2023-04-25T21:56:09.983Z,10.52
2023-04-25T21:58:38.177Z,9.80
2023-04-25T22:01:06.486Z,11.10
2023-04-25T22:03:34.878Z,10.98
2023-04-25T22:06:04.075Z,10.80
2023-04-25T22:08:32.069Z,11.52
2023-04-25T22:11:02.924Z,13.95
2023-04-25T22:13:31.351Z,15.15
2023-04-25T22:16:00.038Z,13.43
2023-04-25T22:18:29.176Z,12.02
2023-04-25T22:20:57.434Z,22.48
2023-04-25T22:23:25.878Z,14.35
2023-04-25T22:25:54.078Z,10.07
2023-04-25T22:28:22.871Z,11.82
2023-04-25T22:30:51.155Z,16.17
2023-04-25T22:33:19.672Z,14.60
2023-04-25T22:35:47.698Z,15.27
2023-04-25T22:38:16.062Z,10.57
2023-04-25T22:40:47.839Z,14.02
2023-04-25T22:43:16.838Z,15.02
2023-04-25T22:45:45.504Z,16.15
2023-04-25T22:48:14.182Z,19.33
2023-04-25T22:50:43.318Z,15.75
2023-04-25T22:53:12.141Z,19.27
2023-04-25T22:55:40.254Z,14.52
2023-04-25T22:58:09.477Z,20.33
2023-04-25T23:00:38.260Z,16.70
2023-04-25T23:03:07.465Z,20.10
2023-04-25T23:05:35.423Z,17.13
2023-04-25T23:08:03.694Z,16.00
2023-04-25T23:10:32.269Z,13.38
2023-04-25T23:13:01.069Z,16.40
2023-04-25T23:15:31.539Z,15.30
2023-04-25T23:18:00.053Z,14.68
2023-04-25T23:20:29.158Z,26.63
2023-04-25T23:22:57.466Z,21.10
2023-04-25T23:25:26.937Z,13.75
2023-04-25T23:27:55.546Z,20.63
2023-04-25T23:30:23.474Z,14.73
2023-04-25T23:32:52.675Z,15.07
2023-04-25T23:35:21.241Z,13.60
2023-04-25T23:37:49.585Z,13.60
2023-04-25T23:40:17.730Z,11.95
2023-04-25T23:42:45.552Z,15.40
2023-04-25T23:45:15.923Z,15.75
2023-04-25T23:47:44.128Z,16.48
2023-04-25T23:50:12.470Z,15.35
2023-04-25T23:52:41.052Z,23.05
2023-04-25T23:55:10.013Z,18.33
2023-04-25T23:57:37.993Z,14.93
